Time;durP1;ratioP1;P1;durP2;ratioP2;P2;SDS_P1;SDS_P2;PMS_P1;PMS_P2;Temp;Humidity;BMP_temperature;BMP_pressure;BME280_temperature;BME280_humidity;BME280_pressure;Samples;Min_cycle;Max_cycle;Signal;HPM_P1;HPM_P2
2023/09/07 00:01:52;;;;;;;9.30;4.10;;;;;;;-140.66;100.00;55571.53;5100394;28;20035;-73
2023/09/07 00:04:38;;;;;;;6.07;4.00;;;;;;;-140.66;100.00;55571.53;5101462;28;20023;-72
2023/09/07 00:07:24;;;;;;;12.18;4.65;;;;;;;-140.66;100.00;55571.53;5100492;28;20030;-73
2023/09/07 00:10:09;;;;;;;5.38;3.90;;;;;;;-140.66;100.00;55571.53;5102057;28;20074;-73
2023/09/07 00:12:55;;;;;;;9.57;4.45;;;;;;;-140.66;100.00;55571.53;5116006;28;20031;-73
2023/09/07 00:15:41;;;;;;;7.30;4.25;;;;;;;-140.66;100.00;55571.53;5102128;28;20115;-72
2023/09/07 00:18:27;;;;;;;5.32;4.10;;;;;;;-140.66;100.00;55571.53;5115057;28;20038;-72
2023/09/07 00:21:13;;;;;;;6.55;4.28;;;;;;;-140.66;100.00;55571.53;5100658;28;20122;-73
2023/09/07 00:23:58;;;;;;;6.13;3.90;;;;;;;-140.66;100.00;55571.53;5114132;28;20020;-71
2023/09/07 00:26:45;;;;;;;6.45;3.95;;;;;;;-140.66;100.00;55571.53;5116008;28;20051;-72
2023/09/07 00:29:31;;;;;;;9.27;4.00;;;;;;;-140.66;100.00;55571.53;5100733;28;20367;-73
2023/09/07 00:32:17;;;;;;;8.05;3.78;;;;;;;-140.66;100.00;55571.53;5115112;28;20475;-72
2023/09/07 00:35:04;;;;;;;5.30;4.03;;;;;;;-140.66;100.00;55571.53;5099901;28;20079;-73
2023/09/07 00:37:49;;;;;;;6.88;4.20;;;;;;;-140.66;100.00;55571.53;5114308;28;20096;-73
2023/09/07 00:40:35;;;;;;;8.45;4.30;;;;;;;-140.66;100.00;55571.53;5114325;28;20023;-73
2023/09/07 00:43:21;;;;;;;6.93;4.18;;;;;;;-140.66;100.00;55571.53;5114334;28;20059;-72
2023/09/07 00:46:07;;;;;;;9.48;4.03;;;;;;;-140.66;100.00;55571.53;5115528;28;20020;-72
2023/09/07 00:48:53;;;;;;;5.45;4.00;;;;;;;-140.66;100.00;55571.53;5114907;28;20038;-74
2023/09/07 00:51:39;;;;;;;8.48;4.20;;;;;;;-140.66;100.00;55571.53;5114666;28;20027;-71
2023/09/07 00:54:25;;;;;;;6.75;4.25;;;;;;;-140.66;100.00;55571.53;5115840;28;20031;-72
2023/09/07 00:57:12;;;;;;;11.93;4.43;;;;;;;-140.66;100.00;55571.53;5114360;28;20052;-72
2023/09/07 00:59:58;;;;;;;9.65;4.40;;;;;;;-140.66;100.00;55571.53;5100515;28;20102;-72
2023/09/07 01:02:44;;;;;;;7.63;4.07;;;;;;;-140.66;100.00;55571.53;5114269;28;20062;-73
2023/09/07 01:05:39;;;;;;;7.65;4.63;;;;;;;-140.66;100.00;55571.53;5099529;28;20019;-72
2023/09/07 01:08:58;;;;;;;8.38;4.25;;;;;;;-140.66;100.00;55571.53;5115002;28;20024;-73
2023/09/07 01:11:43;;;;;;;7.25;4.30;;;;;;;-140.66;100.00;55571.53;5109303;28;20039;-72
2023/09/07 01:14:29;;;;;;;8.57;4.30;;;;;;;-140.66;100.00;55571.53;5113648;28;20050;-71
2023/09/07 01:17:15;;;;;;;6.95;3.75;;;;;;;-140.66;100.00;55571.53;5113898;28;20395;-72
2023/09/07 01:20:10;;;;;;;6.82;4.53;;;;;;;-140.66;100.00;55571.53;5114472;28;20023;-72
2023/09/07 01:22:57;;;;;;;7.40;3.92;;;;;;;-140.66;100.00;55571.53;5115622;28;20039;-72
2023/09/07 01:25:43;;;;;;;7.07;4.07;;;;;;;-140.66;100.00;55571.53;5113517;28;20473;-72
2023/09/07 01:28:29;;;;;;;8.13;4.00;;;;;;;-140.66;100.00;55571.53;5113333;28;20476;-71
2023/09/07 01:31:15;;;;;;;6.22;4.25;;;;;;;-140.66;100.00;55571.53;5113395;28;20516;-72
2023/09/07 01:34:01;;;;;;;9.40;4.32;;;;;;;-140.66;100.00;55571.53;5114029;28;20031;-72
2023/09/07 01:36:47;;;;;;;7.95;4.00;;;;;;;-140.66;100.00;55571.53;5115357;28;20031;-72
2023/09/07 01:39:32;;;;;;;18.40;4.63;;;;;;;-140.66;100.00;55571.53;5113077;28;20358;-71
2023/09/07 01:42:18;;;;;;;6.82;4.22;;;;;;;-140.66;100.00;55571.53;5098985;28;20030;-72
2023/09/07 01:45:05;;;;;;;7.80;4.40;;;;;;;-140.66;100.00;55571.53;5113810;28;20047;-72
2023/09/07 01:47:51;;;;;;;7.28;4.45;;;;;;;-140.66;100.00;55571.53;5098982;28;20152;-71
2023/09/07 01:50:37;;;;;;;6.90;4.43;;;;;;;-140.66;100.00;55571.53;5100052;28;20019;-72
2023/09/07 01:53:23;;;;;;;7.65;4.57;;;;;;;-140.66;100.00;55571.53;5112871;28;20077;-72
2023/09/07 01:56:09;;;;;;;8.13;4.53;;;;;;;-140.66;100.00;55571.53;5112550;28;20024;-71
2023/09/07 01:58:55;;;;;;;8.05;4.70;;;;;;;-140.66;100.00;55571.53;5114441;28;20024;-72
2023/09/07 02:01:41;;;;;;;10.70;4.40;;;;;;;-140.66;100.00;55571.53;5113559;28;20027;-72
2023/09/07 02:04:26;;;;;;;8.52;4.55;;;;;;;-140.66;100.00;55571.53;5111912;28;20086;-71
2023/09/07 02:07:13;;;;;;;7.93;4.55;;;;;;;-140.66;100.00;55571.53;5112313;28;20394;-71
2023/09/07 02:09:59;;;;;;;4.95;4.10;;;;;;;-140.66;100.00;55571.53;5098142;28;20358;-72
2023/09/07 02:12:46;;;;;;;7.45;4.55;;;;;;;-140.66;100.00;55571.53;5113929;28;20042;-71
2023/09/07 02:15:33;;;;;;;6.45;4.60;;;;;;;-140.66;100.00;55571.53;5113474;28;20023;-71
2023/09/07 02:18:19;;;;;;;7.55;4.30;;;;;;;-140.66;100.00;55571.53;5114411;28;20059;-72
2023/09/07 02:21:06;;;;;;;6.60;4.43;;;;;;;-140.66;100.00;55571.53;5112294;28;20050;-72
2023/09/07 02:23:51;;;;;;;9.40;4.47;;;;;;;-140.66;100.00;55571.53;5114107;28;20028;-72
2023/09/07 02:26:43;;;;;;;6.97;4.50;;;;;;;-140.66;100.00;55571.53;5113937;28;20034;-72
2023/09/07 02:29:29;;;;;;;6.90;3.97;;;;;;;-140.66;100.00;55571.53;5114489;28;20456;-72
2023/09/07 02:32:15;;;;;;;8.23;4.57;;;;;;;-140.66;100.00;55571.53;5113148;28;20031;-72
2023/09/07 02:35:00;;;;;;;9.27;4.50;;;;;;;-140.66;100.00;55571.53;5112786;28;20456;-72
2023/09/07 02:37:46;;;;;;;7.15;4.30;;;;;;;-140.66;100.00;55571.53;5098142;28;20023;-73
2023/09/07 02:40:32;;;;;;;12.40;4.65;;;;;;;-140.66;100.00;55571.53;5113684;28;20325;-72
2023/09/07 02:43:17;;;;;;;10.82;4.80;;;;;;;-140.66;100.00;55571.53;5112411;28;20023;-72
2023/09/07 02:46:03;;;;;;;10.43;5.07;;;;;;;-140.66;100.00;55571.53;5112514;28;20042;-72
2023/09/07 02:48:49;;;;;;;8.40;4.90;;;;;;;-140.66;100.00;55571.53;5113759;28;20107;-72
2023/09/07 02:51:35;;;;;;;9.45;4.57;;;;;;;-140.66;100.00;55571.53;5113961;28;20135;-71
2023/09/07 02:54:20;;;;;;;8.48;4.80;;;;;;;-140.66;100.00;55571.53;5114728;28;20019;-72
2023/09/07 02:57:06;;;;;;;8.77;5.05;;;;;;;-140.66;100.00;55571.53;5113891;28;20055;-71
2023/09/07 02:59:53;;;;;;;8.20;5.18;;;;;;;-140.66;100.00;55571.53;5113813;28;20102;-72
2023/09/07 03:02:38;;;;;;;7.32;5.07;;;;;;;-140.66;100.00;55571.53;5115545;28;20106;-72
2023/09/07 03:05:28;;;;;;;7.20;4.80;;;;;;;-140.66;100.00;55571.53;5102132;28;20034;-72
2023/09/07 03:08:13;;;;;;;8.85;4.60;;;;;;;-140.66;100.00;55571.53;5117092;28;20035;-72
2023/09/07 03:11:03;;;;;;;6.78;4.53;;;;;;;-140.66;100.00;55571.53;5102266;28;20027;-73
2023/09/07 03:13:49;;;;;;;6.07;4.20;;;;;;;-140.66;100.00;55571.53;5117550;28;20405;-71
2023/09/07 03:16:35;;;;;;;8.60;4.38;;;;;;;-140.66;100.00;55571.53;5101846;28;20039;-72
2023/09/07 03:19:20;;;;;;;8.77;4.25;;;;;;;-140.66;100.00;55571.53;5116172;28;20024;-73
2023/09/07 03:22:06;;;;;;;7.20;4.82;;;;;;;-140.66;100.00;55571.53;5101443;28;20055;-73
2023/09/07 03:24:52;;;;;;;8.45;4.80;;;;;;;-140.66;100.00;55571.53;5107825;28;20116;-72
2023/09/07 03:27:38;;;;;;;7.18;4.40;;;;;;;-140.66;100.00;55571.53;5115811;28;20085;-72
2023/09/07 03:30:24;;;;;;;12.88;4.78;;;;;;;-140.66;100.00;55571.53;5116377;28;20106;-73
2023/09/07 03:33:09;;;;;;;8.52;5.10;;;;;;;-140.66;100.00;55571.53;5116054;28;20034;-73
2023/09/07 03:35:58;;;;;;;9.57;4.32;;;;;;;-140.66;100.00;55571.53;5117811;28;20023;-72
2023/09/07 03:38:44;;;;;;;6.78;4.75;;;;;;;-140.66;100.00;55571.53;5116758;28;20087;-71
2023/09/07 03:41:30;;;;;;;7.47;4.65;;;;;;;21.13;99.15;101672.53;5115207;28;20107;-72
2023/09/07 03:44:16;;;;;;;8.85;4.43;;;;;;;20.31;100.00;101679.72;5088548;28;20382;-72
2023/09/07 03:47:03;;;;;;;7.18;5.00;;;;;;;20.42;100.00;101681.00;5114997;28;20099;-72
2023/09/07 03:49:49;;;;;;;8.70;5.30;;;;;;;20.60;100.00;101685.53;5116465;28;20036;-72
2023/09/07 03:52:35;;;;;;;10.10;4.70;;;;;;;20.78;100.00;101686.53;5102717;28;20430;-72
2023/09/07 03:55:20;;;;;;;8.52;5.13;;;;;;;20.42;100.00;101690.78;5116677;28;20019;-72
2023/09/07 03:58:06;;;;;;;9.75;5.40;;;;;;;20.55;100.00;101691.97;5101733;28;20042;-72
2023/09/07 04:00:52;;;;;;;8.80;4.85;;;;;;;20.52;100.00;101700.09;5107742;28;20107;-72
2023/09/07 04:03:37;;;;;;;10.50;5.30;;;;;;;20.86;100.00;101705.72;5100910;28;20032;-73
2023/09/07 04:06:24;;;;;;;7.40;4.93;;;;;;;20.33;100.00;101699.16;5115370;28;20027;-73
2023/09/07 04:09:09;;;;;;;7.43;4.85;;;;;;;20.86;100.00;101698.56;5116432;28;20068;-73
2023/09/07 04:11:55;;;;;;;11.32;5.60;;;;;;;20.61;100.00;101705.06;5116604;28;20049;-73
2023/09/07 04:14:42;;;;;;;8.75;5.57;;;;;;;20.78;100.00;101703.38;5115860;28;20084;-73
2023/09/07 04:17:28;;;;;;;8.38;5.13;;;;;;;20.82;100.00;101704.97;5114448;28;20024;-73
2023/09/07 04:20:13;;;;;;;12.20;5.70;;;;;;;20.95;100.00;101708.00;5116316;28;20019;-72
2023/09/07 04:22:59;;;;;;;7.65;4.57;;;;;;;21.10;100.00;101699.31;5115085;28;20019;-72
2023/09/07 04:25:45;;;;;;;10.20;5.35;;;;;;;20.86;100.00;101703.91;5116082;28;20015;-72
2023/09/07 04:28:31;;;;;;;15.43;5.70;;;;;;;21.07;100.00;101702.13;5116015;28;20494;-72
2023/09/07 04:31:16;;;;;;;13.93;5.15;;;;;;;21.05;100.00;101704.00;5116368;28;20039;-72
2023/09/07 04:34:02;;;;;;;12.50;5.43;;;;;;;20.57;100.00;101712.28;5116027;28;20426;-73
2023/09/07 04:36:48;;;;;;;9.70;5.43;;;;;;;20.30;100.00;101708.16;5116065;28;20184;-72
2023/09/07 04:39:34;;;;;;;9.75;5.30;;;;;;;20.51;100.00;101709.91;5116794;28;20398;-72
2023/09/07 04:42:20;;;;;;;6.32;4.85;;;;;;;20.74;100.00;101715.09;5114069;28;20420;-72
2023/09/07 04:45:06;;;;;;;8.00;5.30;;;;;;;20.64;100.00;101719.09;5113728;28;20040;-72
2023/09/07 04:47:52;;;;;;;10.23;5.45;;;;;;;20.84;100.00;101715.56;5114315;28;20024;-72
2023/09/07 04:50:38;;;;;;;10.20;5.50;;;;;;;20.34;100.00;101712.41;5113889;28;20020;-73
2023/09/07 04:53:23;;;;;;;11.13;4.97;;;;;;;20.64;100.00;101721.75;5115099;28;20015;-73
2023/09/07 04:56:09;;;;;;;18.27;6.15;;;;;;;20.93;100.00;101717.88;5114427;28;20016;-72
2023/09/07 04:58:55;;;;;;;8.10;5.30;;;;;;;20.76;100.00;101721.22;5113918;28;20019;-72
2023/09/07 05:01:43;;;;;;;8.43;5.70;;;;;;;20.87;100.00;101721.63;5114365;28;20096;-73
2023/09/07 05:04:30;;;;;;;9.98;5.57;;;;;;;20.92;100.00;101724.97;5113897;28;20342;-72
2023/09/07 05:07:16;;;;;;;12.48;5.55;;;;;;;21.35;100.00;101719.47;5115699;28;20023;-72
2023/09/07 05:10:02;;;;;;;8.80;5.32;;;;;;;20.95;100.00;101729.31;5098338;28;20529;-72
2023/09/07 05:12:48;;;;;;;8.80;5.00;;;;;;;21.06;100.00;101724.38;5114597;28;20032;-72
2023/09/07 05:15:34;;;;;;;10.40;5.30;;;;;;;21.22;100.00;101722.75;5113396;28;20038;-72
2023/09/07 05:18:20;;;;;;;9.75;6.05;;;;;;;21.45;100.00;101734.09;5113785;28;20028;-72
2023/09/07 05:21:16;;;;;;;12.52;5.68;;;;;;;21.25;100.00;101725.25;5099314;28;20365;-72
2023/09/07 05:24:02;;;;;;;15.60;5.32;;;;;;;21.43;100.00;101725.31;5099208;28;20319;-72
2023/09/07 05:26:48;;;;;;;7.60;5.47;;;;;;;21.16;100.00;101726.56;5089592;28;20046;-72
2023/09/07 05:29:33;;;;;;;12.05;5.35;;;;;;;21.40;100.00;101732.56;5099152;28;20027;-72
2023/09/07 05:32:19;;;;;;;7.80;5.18;;;;;;;21.67;99.98;101731.28;5113562;28;20091;-72
2023/09/07 05:35:05;;;;;;;8.15;5.22;;;;;;;21.69;100.00;101732.06;5114531;28;20028;-73
2023/09/07 05:37:51;;;;;;;8.23;5.47;;;;;;;21.47;99.97;101724.22;5114248;28;20043;-72
2023/09/07 05:40:38;;;;;;;10.05;5.40;;;;;;;21.73;99.86;101731.91;5097957;28;20096;-72
2023/09/07 05:43:24;;;;;;;7.43;5.20;;;;;;;21.91;98.00;101736.34;5113472;28;20123;-72
2023/09/07 05:46:10;;;;;;;10.05;4.75;;;;;;;21.87;98.08;101737.44;5112536;28;20111;-72
2023/09/07 05:48:55;;;;;;;9.32;5.20;;;;;;;21.65;98.70;101739.38;5113947;28;20020;-72
2023/09/07 05:51:41;;;;;;;7.30;5.25;;;;;;;21.64;97.83;101745.66;5099165;28;20023;-72
2023/09/07 05:54:27;;;;;;;10.68;5.57;;;;;;;21.84;96.43;101748.28;5112849;28;20434;-72
2023/09/07 05:57:13;;;;;;;7.57;4.57;;;;;;;22.00;95.94;101745.72;5112574;28;20439;-72
2023/09/07 05:59:58;;;;;;;12.30;5.38;;;;;;;22.16;95.06;101746.72;5113520;28;20024;-73
2023/09/07 06:02:45;;;;;;;8.13;5.20;;;;;;;22.12;95.24;101750.47;5113435;28;20027;-73
2023/09/07 06:05:33;;;;;;;8.40;5.10;;;;;;;21.70;96.81;101740.03;5112483;28;20449;-72
2023/09/07 06:08:19;;;;;;;8.13;4.85;;;;;;;21.93;96.18;101750.50;5112357;28;20035;-72
2023/09/07 06:11:05;;;;;;;11.88;5.57;;;;;;;22.24;94.19;101745.41;5112328;28;20078;-72
2023/09/07 06:13:51;;;;;;;7.40;4.72;;;;;;;22.31;93.40;101746.81;5112896;28;20032;-72
2023/09/07 06:16:37;;;;;;;12.82;5.10;;;;;;;22.21;93.23;101750.91;5113597;28;20056;-72
2023/09/07 06:19:23;;;;;;;9.23;4.97;;;;;;;22.08;94.57;101752.44;5112430;28;20046;-72
2023/09/07 06:22:08;;;;;;;10.93;6.05;;;;;;;22.60;92.82;101754.28;5112738;28;20110;-72
2023/09/07 06:24:54;;;;;;;9.13;5.00;;;;;;;22.22;93.61;101754.44;5113162;28;20032;-72
2023/09/07 06:27:40;;;;;;;10.98;5.22;;;;;;;22.22;94.13;101755.28;5113379;28;20084;-71
2023/09/07 06:30:26;;;;;;;9.48;5.15;;;;;;;22.02;94.69;101750.06;5113180;28;20112;-72
2023/09/07 06:33:12;;;;;;;14.02;4.75;;;;;;;22.73;90.71;101755.41;5097829;28;20020;-72
2023/09/07 06:36:01;;;;;;;7.47;4.65;;;;;;;22.70;90.06;101763.56;5113494;28;20023;-71
2023/09/07 06:38:47;;;;;;;8.50;5.38;;;;;;;22.85;89.08;101759.22;5117505;28;20023;-73
2023/09/07 06:41:33;;;;;;;9.90;4.90;;;;;;;22.62;90.98;101763.09;5117503;28;20035;-71
2023/09/07 06:44:18;;;;;;;6.70;4.90;;;;;;;22.82;91.27;101764.72;5117242;28;20078;-72
2023/09/07 06:47:04;;;;;;;17.30;5.57;;;;;;;23.16;89.92;101775.41;5118299;28;20380;-72
2023/09/07 06:49:50;;;;;;;11.35;5.68;;;;;;;22.90;89.40;101768.75;5117272;28;20032;-72
2023/09/07 06:52:36;;;;;;;12.40;5.47;;;;;;;22.72;90.19;101769.72;5116411;28;20047;-71
2023/09/07 06:55:22;;;;;;;6.65;4.60;;;;;;;22.94;89.12;101769.44;5115907;28;20456;-72
2023/09/07 06:58:08;;;;;;;15.32;5.40;;;;;;;23.21;86.41;101768.03;5117327;28;20432;-72
2023/09/07 07:01:00;;;;;;;9.45;4.53;;;;;;;23.39;85.97;101767.06;5117845;28;20027;-72
2023/09/07 07:03:45;;;;;;;8.35;5.43;;;;;;;23.48;83.94;101765.69;5101971;28;20023;-71
2023/09/07 07:06:31;;;;;;;10.45;4.82;;;;;;;23.58;83.90;101770.47;5117590;28;20027;-72
2023/09/07 07:09:17;;;;;;;6.80;5.15;;;;;;;23.47;85.42;101770.19;5117367;28;20111;-72
2023/09/07 07:12:03;;;;;;;10.38;4.70;;;;;;;23.44;85.09;101763.19;5117424;28;20027;-71
2023/09/07 07:14:49;;;;;;;7.35;4.85;;;;;;;23.77;83.11;101767.63;5116486;28;20023;-72
2023/09/07 07:17:35;;;;;;;10.68;5.00;;;;;;;24.05;81.96;101767.84;5116429;28;20027;-72
2023/09/07 07:20:21;;;;;;;17.35;6.00;;;;;;;24.47;78.41;101765.41;5116070;28;20023;-72
2023/09/07 07:23:06;;;;;;;7.53;4.47;;;;;;;24.45;77.90;101769.97;5116705;28;20023;-71
2023/09/07 07:25:52;;;;;;;8.38;4.80;;;;;;;24.37;77.18;101764.19;5101436;28;20063;-72
2023/09/07 07:28:38;;;;;;;9.35;4.82;;;;;;;24.64;76.32;101766.19;5115790;28;20027;-72
2023/09/07 07:31:24;;;;;;;7.63;4.72;;;;;;;24.52;75.76;101763.31;5116425;28;20031;-72
2023/09/07 07:34:10;;;;;;;11.00;5.18;;;;;;;24.05;77.94;101768.72;5102396;28;20030;-72
2023/09/07 07:36:56;;;;;;;13.65;4.63;;;;;;;23.96;77.06;101763.03;5115539;28;20031;-72
2023/09/07 07:39:41;;;;;;;9.52;4.95;;;;;;;24.46;74.69;101767.22;5114951;28;20473;-72
2023/09/07 07:42:27;;;;;;;9.27;4.53;;;;;;;24.78;74.24;101771.59;5116052;28;20034;-73
2023/09/07 07:45:13;;;;;;;9.93;4.35;;;;;;;25.11;71.99;101769.53;5114562;28;20059;-72
2023/09/07 07:47:59;;;;;;;11.05;4.70;;;;;;;25.53;69.21;101756.22;5115423;28;20054;-72
2023/09/07 07:50:45;;;;;;;22.67;5.55;;;;;;;25.60;69.80;101756.69;5114984;28;20453;-72
2023/09/07 07:53:31;;;;;;;12.20;5.13;;;;;;;25.80;67.62;101753.59;5114998;28;20035;-72
2023/09/07 07:56:18;;;;;;;11.13;5.30;;;;;;;25.65;67.53;101755.44;5114318;28;20038;-72
2023/09/07 07:59:03;;;;;;;9.70;5.05;;;;;;;25.17;69.30;101761.13;5108833;28;20027;-71
2023/09/07 08:01:49;;;;;;;10.25;4.70;;;;;;;25.62;68.07;101765.47;5099180;28;20062;-72
2023/09/07 08:04:35;;;;;;;10.57;4.75;;;;;;;25.56;67.60;101756.00;5116225;28;20122;-72
2023/09/07 08:07:21;;;;;;;7.88;4.85;;;;;;;25.66;69.19;101756.28;5113900;28;20050;-72
2023/09/07 08:10:07;;;;;;;13.02;5.55;;;;;;;26.13;67.04;101755.00;5115089;28;20030;-72
2023/09/07 08:12:54;;;;;;;13.38;5.28;;;;;;;25.43;69.33;101748.84;5114815;28;20119;-73
2023/09/07 08:15:40;;;;;;;11.90;5.50;;;;;;;25.63;70.12;101753.81;5116014;28;20024;-72
2023/09/07 08:18:26;;;;;;;13.10;5.20;;;;;;;26.23;68.14;101747.16;5115224;28;20084;-72
2023/09/07 08:21:14;;;;;;;9.82;5.13;;;;;;;26.80;65.90;101751.38;5114429;28;20039;-72
2023/09/07 08:24:00;;;;;;;8.77;5.18;;;;;;;26.16;67.87;101759.28;5114681;28;20024;-73
2023/09/07 08:26:50;;;;;;;14.13;5.07;;;;;;;25.97;69.69;101742.66;5115784;28;20110;-72
2023/09/07 08:29:36;;;;;;;11.85;5.38;;;;;;;26.69;67.40;101753.91;5115383;28;20024;-71
2023/09/07 08:32:22;;;;;;;7.68;5.18;;;;;;;26.94;64.73;101745.88;5116300;28;20118;-73
2023/09/07 08:35:12;;;;;;;14.57;5.40;;;;;;;27.36;63.98;101754.53;5100288;28;20125;-73
2023/09/07 08:37:58;;;;;;;8.32;5.20;;;;;;;27.53;63.23;101747.97;5114972;28;20369;-72
2023/09/07 08:40:46;;;;;;;11.32;5.35;;;;;;;27.78;63.86;101741.66;5114443;28;20483;-72
2023/09/07 08:43:34;;;;;;;8.85;5.43;;;;;;;28.32;63.83;101733.09;5114531;28;20465;-72
2023/09/07 08:46:21;;;;;;;8.35;4.53;;;;;;;28.30;60.89;101729.66;5115056;28;20023;-73
2023/09/07 08:49:08;;;;;;;9.88;4.65;;;;;;;28.57;62.24;101730.28;5100651;28;20042;-72
2023/09/07 08:51:58;;;;;;;13.15;4.97;;;;;;;29.19;60.93;101728.13;5115529;28;20031;-72
2023/09/07 08:54:46;;;;;;;14.98;4.95;;;;;;;28.48;63.32;101725.59;5114813;28;20373;-72
2023/09/07 08:57:32;;;;;;;11.32;4.93;;;;;;;28.70;63.27;101725.69;5115048;28;20085;-72
2023/09/07 09:00:19;;;;;;;11.43;5.35;;;;;;;29.14;60.58;101722.25;5114834;28;20402;-73
2023/09/07 09:03:05;;;;;;;6.63;4.82;;;;;;;29.46;59.71;101716.03;5113478;28;20418;-72
2023/09/07 09:05:52;;;;;;;8.13;4.97;;;;;;;29.78;58.76;101711.56;5106227;28;20365;-72
2023/09/07 09:08:52;;;;;;;8.05;4.80;;;;;;;29.68;58.68;101718.72;5113694;28;20035;-73
2023/09/07 09:11:37;;;;;;;14.45;5.57;;;;;;;29.16;60.62;101712.19;5099824;28;20357;-73
2023/09/07 09:14:23;;;;;;;10.65;4.93;;;;;;;29.46;58.63;101715.16;5100392;28;20099;-73
2023/09/07 09:17:13;;;;;;;7.15;4.80;;;;;;;29.46;60.52;101710.63;5114174;28;20028;-74
2023/09/07 09:19:59;;;;;;;6.35;4.63;;;;;;;28.95;61.96;101700.34;5115200;28;20457;-73
2023/09/07 09:22:45;;;;;;;15.43;5.50;;;;;;;29.13;61.16;101699.78;5114224;28;20365;-73
2023/09/07 09:25:31;;;;;;;9.52;4.80;;;;;;;29.36;59.56;101696.13;5113204;28;20023;-73
2023/09/07 09:28:17;;;;;;;14.30;5.00;;;;;;;29.86;58.23;101692.88;5099019;28;20027;-73
2023/09/07 09:31:03;;;;;;;7.78;4.43;;;;;;;29.47;58.85;101692.56;5099492;28;20028;-73
2023/09/07 09:33:52;;;;;;;11.60;5.10;;;;;;;29.98;56.46;101691.88;5090333;28;20015;-72
2023/09/07 09:36:42;;;;;;;9.85;4.78;;;;;;;29.51;58.30;101686.78;5114441;28;20020;-74
2023/09/07 09:39:27;;;;;;;16.00;5.45;;;;;;;29.62;58.90;101685.94;5114643;28;20038;-71
2023/09/07 09:42:13;;;;;;;12.30;4.43;;;;;;;29.53;58.69;101681.25;5113588;28;20425;-72
2023/09/07 09:45:00;;;;;;;9.98;4.90;;;;;;;29.94;56.82;101682.28;5098028;28;20040;-73
2023/09/07 09:47:48;;;;;;;10.10;4.80;;;;;;;29.68;56.37;101680.91;5113044;28;20519;-73
2023/09/07 09:50:38;;;;;;;10.68;5.50;;;;;;;29.93;57.74;101671.66;5113579;28;20035;-73
2023/09/07 09:53:26;;;;;;;6.78;4.20;;;;;;;28.91;56.91;101682.66;5098742;28;20469;-72
2023/09/07 09:56:12;;;;;;;13.18;4.82;;;;;;;29.22;59.19;101668.50;5099975;28;20046;-72
2023/09/07 09:58:57;;;;;;;7.03;4.75;;;;;;;29.39;53.72;101662.59;5113347;28;20200;-72
2023/09/07 10:01:46;;;;;;;11.27;4.28;;;;;;;29.54;51.86;101680.28;5097965;28;20508;-72
2023/09/07 10:04:33;;;;;;;11.82;4.20;;;;;;;29.28;46.21;101673.41;5113854;28;20039;-72
2023/09/07 10:07:28;;;;;;;6.85;3.90;;;;;;;29.58;45.42;101660.16;5114844;28;20093;-72
2023/09/07 10:10:15;;;;;;;7.63;4.15;;;;;;;29.60;44.65;101664.47;5112473;28;20020;-72
2023/09/07 10:13:02;;;;;;;12.05;4.20;;;;;;;29.89;41.77;101662.06;5119163;28;20119;-73
2023/09/07 10:16:00;;;;;;;7.13;4.13;;;;;;;29.53;41.01;101657.78;5103686;28;20034;-71
2023/09/07 10:18:46;;;;;;;10.52;4.70;;;;;;;29.03;41.28;101658.31;5118716;28;20330;-72
2023/09/07 10:21:39;;;;;;;11.48;3.97;;;;;;;29.37;40.74;101642.97;5118681;28;20034;-72
2023/09/07 10:24:30;;;;;;;9.25;4.15;;;;;;;29.43;39.95;101640.63;5102918;28;20111;-73
2023/09/07 10:27:16;;;;;;;11.30;4.25;;;;;;;29.63;41.33;101650.72;5116733;28;20024;-72
2023/09/07 10:30:09;;;;;;;10.55;4.32;;;;;;;29.41;40.60;101641.75;5116701;28;20031;-73
2023/09/07 10:32:55;;;;;;;13.98;4.40;;;;;;;29.71;39.53;101655.47;5116163;28;20032;-72
2023/09/07 10:35:42;;;;;;;14.65;4.30;;;;;;;29.78;39.45;101646.72;5117257;28;20015;-73
2023/09/07 10:38:30;;;;;;;6.82;4.70;;;;;;;29.30;39.86;101637.22;5118610;28;20035;-73
2023/09/07 10:41:16;;;;;;;8.60;4.20;;;;;;;29.65;39.89;101637.91;5118145;28;20476;-74
2023/09/07 10:44:02;;;;;;;10.68;4.10;;;;;;;30.43;39.31;101636.69;5115497;28;20047;-74
2023/09/07 10:46:48;;;;;;;10.50;4.40;;;;;;;29.95;39.13;101632.69;5117272;28;20476;-74
2023/09/07 10:49:36;;;;;;;11.15;4.68;;;;;;;30.01;38.98;101631.31;5101943;28;20437;-74
2023/09/07 10:52:22;;;;;;;7.88;4.35;;;;;;;29.62;39.25;101618.41;5115937;28;20024;-75
2023/09/07 10:55:11;;;;;;;9.48;4.38;;;;;;;30.25;39.10;101622.00;5117826;28;20051;-75
2023/09/07 10:57:57;;;;;;;5.35;3.90;;;;;;;30.40;39.57;101612.59;5101386;28;20020;-74
2023/09/07 11:00:43;;;;;;;11.60;4.30;;;;;;;30.98;38.02;101606.53;5116581;28;20054;-75
2023/09/07 11:03:29;;;;;;;13.65;4.47;;;;;;;30.71;39.23;101600.88;5116056;28;20038;-74
2023/09/07 11:06:20;;;;;;;6.30;4.10;;;;;;;30.61;39.01;101597.19;5117740;28;20027;-74
2023/09/07 11:09:10;;;;;;;5.20;4.30;;;;;;;30.56;39.51;101595.88;5116056;28;20028;-73
2023/09/07 11:11:56;;;;;;;7.60;4.28;;;;;;;31.14;39.70;101603.34;5116864;28;20513;-76
2023/09/07 11:14:41;;;;;;;8.07;4.72;;;;;;;30.76;40.18;101593.19;5117746;28;20110;-76
2023/09/07 11:17:28;;;;;;;7.22;4.47;;;;;;;31.27;39.52;101588.56;5116186;28;20028;-75
2023/09/07 11:20:13;;;;;;;12.43;4.57;;;;;;;31.66;38.87;101581.38;5117171;28;20468;-76
2023/09/07 11:23:00;;;;;;;8.27;4.72;;;;;;;31.51;38.21;101590.94;5114521;28;20031;-74
2023/09/07 11:25:48;;;;;;;12.95;4.70;;;;;;;31.67;38.90;101590.38;5101728;28;20118;-75
2023/09/07 11:28:33;;;;;;;10.27;4.10;;;;;;;30.97;40.43;101566.06;5116582;28;20028;-76
2023/09/07 11:31:21;;;;;;;7.07;4.45;;;;;;;30.75;40.43;101583.38;5117181;28;20023;-76
2023/09/07 11:34:11;;;;;;;9.52;4.20;;;;;;;30.70;41.18;101568.53;5116951;28;20016;-76
2023/09/07 11:36:56;;;;;;;7.35;4.60;;;;;;;30.99;37.50;101580.31;5101292;28;20028;-76
2023/09/07 11:39:43;;;;;;;11.00;4.35;;;;;;;31.17;39.71;101578.66;5102902;28;20035;-74
2023/09/07 11:42:28;;;;;;;6.65;4.25;;;;;;;30.90;39.42;101578.44;5102436;28;20024;-74
2023/09/07 11:45:15;;;;;;;17.67;4.80;;;;;;;31.33;39.64;101570.06;5116718;28;20130;-74
2023/09/07 11:48:01;;;;;;;10.02;4.85;;;;;;;31.68;39.36;101568.56;5115655;28;20440;-75
2023/09/07 11:50:47;;;;;;;8.43;4.72;;;;;;;32.13;38.38;101563.44;5114801;28;20035;-74
2023/09/07 11:53:32;;;;;;;11.80;4.78;;;;;;;31.53;38.73;101567.25;5101291;28;20031;-75
2023/09/07 11:56:18;;;;;;;8.52;4.57;;;;;;;31.48;38.46;101553.28;5115023;28;20027;-75
2023/09/07 11:59:04;;;;;;;9.15;4.43;;;;;;;31.56;39.12;101561.56;5115261;28;20385;-76
2023/09/07 12:01:50;;;;;;;7.35;4.00;;;;;;;31.72;38.21;101566.41;5114437;28;20020;-74
2023/09/07 12:04:37;;;;;;;8.38;4.63;;;;;;;31.45;38.76;101561.66;5114968;28;20035;-75
2023/09/07 12:07:23;;;;;;;16.73;5.22;;;;;;;31.30;39.81;101561.22;5116626;28;20019;-75
2023/09/07 12:10:10;;;;;;;8.23;4.10;;;;;;;30.87;40.28;101551.63;5115699;28;20465;-74
2023/09/07 12:12:55;;;;;;;15.98;4.90;;;;;;;31.28;39.72;101549.69;5115909;28;20027;-73
2023/09/07 12:15:41;;;;;;;33.10;5.57;;;;;;;31.67;39.54;101552.44;5116755;28;20089;-75
2023/09/07 12:18:27;;;;;;;6.82;4.38;;;;;;;31.62;38.66;101554.72;5114865;28;20054;-75
2023/09/07 12:21:13;;;;;;;15.77;5.18;;;;;;;31.58;38.76;101550.56;5114939;28;20035;-75
2023/09/07 12:23:59;;;;;;;10.00;4.53;;;;;;;31.73;38.36;101552.72;5101925;28;20361;-76
2023/09/07 12:26:44;;;;;;;6.57;4.32;;;;;;;31.42;37.91;101548.38;5101514;28;20031;-74
2023/09/07 12:29:30;;;;;;;23.40;5.03;;;;;;;31.62;37.89;101550.13;5115536;28;20034;-74
2023/09/07 12:32:16;;;;;;;13.40;4.88;;;;;;;31.49;39.17;101543.31;5100536;28;20166;-75
2023/09/07 12:35:02;;;;;;;8.65;4.63;;;;;;;31.41;39.41;101551.28;5115429;28;20020;-74
2023/09/07 12:37:49;;;;;;;8.73;4.43;;;;;;;30.95;39.49;101551.81;5115773;28;20023;-75
2023/09/07 12:40:36;;;;;;;8.38;4.60;;;;;;;31.64;38.17;101558.13;5115605;28;20027;-75
2023/09/07 12:43:24;;;;;;;5.80;3.95;;;;;;;30.55;39.23;101542.75;5113674;28;20051;-75
2023/09/07 12:46:10;;;;;;;7.90;4.65;;;;;;;31.42;38.54;101549.25;5114446;28;20035;-75